Sarandi, Brazil
Current Conditions -  °F | °C
As of 12:00 PM on Monday 22 Dec 2014 (Local Time) from SBMG Reporting Station
Light Rain Light Rain  
Wind Chill: 70°   Ceiling: 900
Heat Index: 70°   Visibility: 0.75mi
Dew Point: 68°   Wind: 9mph
Humidity: 94%   Direction: 140°SE
Pressure: NA   Gusts: NA
Location:  23.44°S, 51.87°W
Report Text: SBMG 221400Z 14008KT 1200 -RA BCFG SCT003 BKN009 OVC020 21/20 Q1010
Loading
Personal Weather Stations






























Interactive Weather Map New forecast layout! Learn more

10-Day Weather Forecast

Advertisements
Track Severe Weather on mobile